Impacts METAR Board
IDs:

KSAT - San Antonio Intl, TX, US

Updated at: 0900 UTC 26 May 2019
Potential Impact None Slight Moderate High
Time 25/21Z 25/22Z 25/23Z 26/00Z 26/01Z 26/02Z 26/03Z 26/04Z 26/05Z 26/06Z 26/07Z 26/08Z 26/09Z
Temp91 88 87 87 83 80 78 76 76 76 75 75 75
Dewpt69 69 66 67 68 67 68 69 70 70 69 70 70
Altim29.97 29.96 29.95 29.96 29.96 29.98 30.00 30.02 30.03 30.01 30.02 30.01 30.01
VIS10 10 10 10 10 10 10 10 10 10 10 10 10
CIG45 -- -- -- 250 250 250 19 17 16 17 36 15
CoverBKNSCTSCTSCTBKNBKNBKNBKNBKNOVCOVCBKNOVC
FltCatVFRVFRVFRVFRVFRVFRVFRMVFRMVFRMVFRMVFRVFRMVFR
WX--------------------------
WDir150130140140130120130140140150150140150
WSpd17 15 18 16 18 16 16 14 14 11 13 9 10
WGst26 24 -- -- -- -- 20 22 -- -- 23 -- --
Raw hourly METARs
KSAT 252051Z 15017G26KT 10SM BKN045 33/21 A2997 RMK AO2 PK WND 15026/2027 SLP129 T03280206 57020
KSAT 252151Z 13015G24KT 10SM SCT047 SCT250 31/21 A2996 RMK AO2 PK WND 13026/2052 SLP126 T03110206
KSAT 252251Z 14018KT 10SM SCT049 31/19 A2995 RMK AO2 PK WND 13026/2215 SLP124 T03060189
KSAT 252351Z 14016KT 10SM SCT047 SCT250 31/19 A2996 RMK AO2 SLP128 T03060194 10328 20300 55003
KSAT 260051Z 13018KT 10SM FEW039 BKN250 28/20 A2996 RMK AO2 SLP128 T02830200
KSAT 260151Z 12016KT 10SM FEW035 BKN250 27/19 A2998 RMK AO2 PK WND 13027/0055 SLP134 T02670194
KSAT 260251Z 13016G20KT 10SM FEW027 BKN250 26/20 A3000 RMK AO2 SLP140 T02560200 53012
KSAT 260401Z 14014G22KT 10SM BKN019 24/21 A3002 RMK AO2 T02440206
KSAT 260451Z 14014KT 10SM BKN017 24/21 A3003 RMK AO2 SLP149 T02440211
KSAT 260551Z 15011KT 10SM BKN016 OVC023 24/21 A3001 RMK AO2 SLP145 T02440211 10300 20244 403280239 50005
KSAT 260651Z 15013G23KT 10SM BKN017 OVC021 24/21 A3002 RMK AO2 SLP145 T02390206
KSAT 260803Z 14009KT 10SM FEW015 SCT021 BKN036 24/21 A3001 RMK AO2 T02390211
KSAT 260851Z 15010KT 10SM BKN015 OVC022 24/21 A3001 RMK AO2 SLP141 T02390211 58003